Time;durP1;ratioP1;P1;durP2;ratioP2;P2;SDS_P1;SDS_P2;PMS_P1;PMS_P2;Temp;Humidity;BMP_temperature;BMP_pressure;BME280_temperature;BME280_humidity;BME280_pressure;Samples;Min_cycle;Max_cycle;Signal;HPM_P1;HPM_P2
2021/07/06 00:01:22;;;;;;;2.47;2.27;;;;;;;19.89;65.45;96159.09;5091465;28;20424;-66
2021/07/06 00:03:48;;;;;;;2.73;2.17;;;;;;;19.88;65.42;96149.50;5074554;28;20424;-66
2021/07/06 00:06:13;;;;;;;3.13;1.90;;;;;;;19.91;65.40;96154.34;5091722;28;20202;-66
2021/07/06 00:08:39;;;;;;;3.20;2.10;;;;;;;19.91;64.99;96157.00;5056410;28;20610;-67
2021/07/06 00:11:05;;;;;;;2.77;2.57;;;;;;;19.89;65.18;96153.75;5091480;28;20181;-66
2021/07/06 00:13:30;;;;;;;2.00;1.90;;;;;;;19.87;65.15;96150.53;5091537;28;20200;-66
2021/07/06 00:15:56;;;;;;;11.23;2.30;;;;;;;19.83;65.05;96158.16;5088489;28;20174;-66
2021/07/06 00:18:23;;;;;;;2.50;2.30;;;;;;;19.82;65.28;96159.19;5092313;28;20661;-67
2021/07/06 00:20:48;;;;;;;2.40;2.20;;;;;;;19.84;65.21;96153.63;5093005;28;20204;-66
2021/07/06 00:23:14;;;;;;;2.37;2.17;;;;;;;19.80;65.56;96147.97;5072755;28;20420;-67
2021/07/06 00:25:40;;;;;;;2.57;2.37;;;;;;;19.77;65.45;96143.97;5091443;28;20567;-66
2021/07/06 00:28:05;;;;;;;1.80;1.70;;;;;;;19.76;65.41;96145.00;5090007;28;20235;-67
2021/07/06 00:30:31;;;;;;;3.50;2.40;;;;;;;19.73;65.32;96142.81;5092160;28;20201;-66
2021/07/06 00:32:57;;;;;;;5.40;2.53;;;;;;;19.71;65.53;96150.19;5091247;28;20549;-67
2021/07/06 00:35:23;;;;;;;2.47;2.27;;;;;;;19.72;65.77;96143.84;5092173;28;20177;-66
2021/07/06 00:37:48;;;;;;;5.40;2.43;;;;;;;19.71;65.62;96134.25;5092370;28;20907;-66
2021/07/06 00:40:15;;;;;;;3.27;2.67;;;;;;;19.71;65.63;96138.78;5092091;28;20687;-66
2021/07/06 00:42:41;;;;;;;2.40;2.20;;;;;;;19.69;65.62;96135.53;5091853;28;20186;-67
2021/07/06 00:45:09;;;;;;;1.80;1.70;;;;;;;19.64;65.92;96133.59;5090299;28;20526;-67
2021/07/06 00:47:36;;;;;;;2.30;2.10;;;;;;;19.62;65.94;96130.38;5085672;28;20448;-66
2021/07/06 00:50:11;;;;;;;3.23;2.20;;;;;;;19.62;65.97;96128.50;5090740;28;20452;-67
2021/07/06 00:52:37;;;;;;;1.97;1.83;;;;;;;19.60;65.86;96119.16;5092590;28;20953;-66
2021/07/06 00:55:04;;;;;;;2.60;2.40;;;;;;;19.58;65.82;96119.41;5091655;28;20502;-67
2021/07/06 00:57:29;;;;;;;2.83;2.63;;;;;;;19.53;66.02;96111.31;5091983;28;20706;-66
2021/07/06 01:00:16;;;;;;;2.37;2.13;;;;;;;19.57;66.07;96114.31;5091821;28;20415;-66
2021/07/06 01:02:42;;;;;;;3.60;2.30;;;;;;;19.54;66.07;96110.28;5085556;28;20189;-67
2021/07/06 01:05:11;;;;;;;5.53;1.83;;;;;;;19.52;66.23;96108.91;5090464;28;20455;-66
2021/07/06 01:07:37;;;;;;;2.33;2.20;;;;;;;19.52;66.18;96109.72;5091823;28;20582;-67
2021/07/06 01:10:04;;;;;;;4.67;2.10;;;;;;;19.50;66.21;96106.47;5091593;28;20861;-66
2021/07/06 01:12:31;;;;;;;4.90;2.20;;;;;;;19.56;66.09;96102.06;5091848;28;20797;-66
2021/07/06 01:14:58;;;;;;;2.47;2.27;;;;;;;19.56;65.89;96102.06;5091388;28;20477;-67
2021/07/06 01:17:30;;;;;;;2.90;2.00;;;;;;;19.47;66.20;96093.66;5086125;28;20439;-66
2021/07/06 01:19:57;;;;;;;3.07;2.43;;;;;;;19.48;66.08;96098.75;5090539;28;20438;-65
2021/07/06 01:22:31;;;;;;;2.67;2.00;;;;;;;19.46;65.90;96092.88;5090881;28;20420;-67
2021/07/06 01:24:59;;;;;;;2.50;2.30;;;;;;;19.49;65.67;96092.41;5090979;28;20459;-67
2021/07/06 01:27:25;;;;;;;2.63;2.43;;;;;;;19.53;65.52;96089.28;5090944;28;20807;-66
2021/07/06 01:29:51;;;;;;;3.43;2.50;;;;;;;19.54;65.55;96083.72;5091681;28;20432;-66
2021/07/06 01:32:17;;;;;;;3.50;2.20;;;;;;;19.54;65.20;96090.88;5091667;28;20424;-67
2021/07/06 01:34:42;;;;;;;2.60;2.30;;;;;;;19.56;65.48;96094.09;5091115;28;20907;-67
2021/07/06 01:37:08;;;;;;;2.60;2.40;;;;;;;19.60;65.56;96093.38;5090038;28;20182;-66
2021/07/06 01:39:33;;;;;;;3.23;2.37;;;;;;;19.63;65.33;96087.59;5090616;28;20205;-65
2021/07/06 01:41:59;;;;;;;2.77;2.20;;;;;;;19.64;65.20;96077.78;5091457;28;20182;-66
2021/07/06 01:44:26;;;;;;;5.80;2.43;;;;;;;19.62;65.02;96078.00;5090635;28;20567;-67
2021/07/06 01:46:53;;;;;;;3.10;2.63;;;;;;;19.59;64.94;96080.34;5084763;28;20178;-66
2021/07/06 01:49:19;;;;;;;4.93;2.40;;;;;;;19.58;64.94;96071.59;5090808;28;20452;-66
2021/07/06 01:51:45;;;;;;;2.70;2.50;;;;;;;19.58;64.88;96068.94;5093517;28;20455;-67
2021/07/06 01:54:11;;;;;;;3.43;2.37;;;;;;;19.57;64.91;96063.81;5089080;28;20997;-66
2021/07/06 01:56:39;;;;;;;4.50;2.40;;;;;;;19.55;64.91;96060.59;5090856;28;20961;-66
2021/07/06 01:59:04;;;;;;;6.83;2.30;;;;;;;19.53;64.95;96063.50;5090157;28;20453;-66
2021/07/06 02:01:30;;;;;;;7.47;2.40;;;;;;;19.51;65.18;96064.78;5091027;28;20431;-66
2021/07/06 02:03:55;;;;;;;3.60;2.60;;;;;;;19.48;65.33;96052.78;5089917;28;20203;-66
2021/07/06 02:06:21;;;;;;;2.30;2.13;;;;;;;19.49;65.11;96062.34;5090924;28;20620;-66
2021/07/06 02:08:47;;;;;;;2.40;2.20;;;;;;;19.49;65.11;96057.03;5091279;28;20193;-66
2021/07/06 02:11:12;;;;;;;2.87;2.23;;;;;;;19.51;65.09;96056.81;5091077;28;20185;-65
2021/07/06 02:13:38;;;;;;;3.50;2.20;;;;;;;19.47;64.80;96054.63;5090897;28;20182;-66
2021/07/06 02:16:04;;;;;;;4.57;2.30;;;;;;;19.44;65.09;96055.09;5084304;28;20221;-67
2021/07/06 02:18:30;;;;;;;4.60;2.57;;;;;;;19.43;65.15;96050.81;5089417;28;20198;-66
2021/07/06 02:20:57;;;;;;;2.53;2.33;;;;;;;19.41;65.13;96047.59;5089780;28;21029;-66
2021/07/06 02:23:24;;;;;;;2.60;2.40;;;;;;;19.37;65.00;96049.13;5090836;28;20496;-65
2021/07/06 02:25:50;;;;;;;4.10;2.17;;;;;;;19.33;64.83;96043.50;5090936;28;20460;-66
2021/07/06 02:28:16;;;;;;;2.63;2.43;;;;;;;19.32;64.95;96041.06;5089146;28;20533;-65
2021/07/06 02:30:42;;;;;;;2.57;2.37;;;;;;;19.26;65.08;96034.84;5089598;28;20497;-66
2021/07/06 02:33:07;;;;;;;5.87;2.20;;;;;;;19.22;65.19;96032.91;5089528;28;20189;-67
2021/07/06 02:35:33;;;;;;;2.70;2.50;;;;;;;19.19;65.19;96037.63;5094312;28;20547;-66
2021/07/06 02:37:59;;;;;;;2.67;2.47;;;;;;;19.18;65.33;96035.22;5093353;28;20844;-65
2021/07/06 02:40:25;;;;;;;2.80;2.13;;;;;;;19.17;65.29;96037.06;5092154;28;20194;-65
2021/07/06 02:42:51;;;;;;;2.43;2.23;;;;;;;19.12;65.26;96028.19;5092896;28;20451;-66
2021/07/06 02:45:17;;;;;;;2.40;2.20;;;;;;;19.11;65.31;96032.69;5093656;28;20948;-65
2021/07/06 02:47:44;;;;;;;7.13;2.57;;;;;;;19.08;65.36;96035.81;5088806;28;20202;-66
2021/07/06 02:50:10;;;;;;;3.60;2.60;;;;;;;19.07;65.42;96028.91;5092755;28;20442;-67
2021/07/06 02:52:36;;;;;;;2.57;2.37;;;;;;;19.06;65.14;96029.94;5094239;28;20423;-65
2021/07/06 02:55:03;;;;;;;2.47;2.20;;;;;;;19.04;65.59;96026.69;5093918;28;20867;-65
2021/07/06 02:57:39;;;;;;;3.10;2.50;;;;;;;19.03;65.51;96030.41;5094049;28;20636;-66
2021/07/06 03:00:09;;;;;;;2.30;2.10;;;;;;;19.00;65.48;96038.84;5093433;28;20419;-66
2021/07/06 03:02:36;;;;;;;3.07;2.80;;;;;;;19.00;65.66;96033.53;5094370;28;20420;-66
2021/07/06 03:05:03;;;;;;;3.90;2.23;;;;;;;19.01;65.74;96032.50;5099081;28;20455;-64
2021/07/06 03:07:28;;;;;;;3.67;2.30;;;;;;;18.99;65.67;96031.94;5097657;28;20976;-66
2021/07/06 03:09:54;;;;;;;4.87;2.80;;;;;;;18.97;65.57;96029.50;5093865;28;20420;-67
2021/07/06 03:12:19;;;;;;;3.23;1.90;;;;;;;19.00;65.66;96030.88;5098382;28;20580;-66
2021/07/06 03:14:45;;;;;;;2.57;2.30;;;;;;;18.98;65.61;96031.09;5097380;28;20170;-69
2021/07/06 03:17:10;;;;;;;2.37;2.10;;;;;;;19.00;65.68;96028.22;5091214;28;20728;-67
2021/07/06 03:19:36;;;;;;;2.07;1.87;;;;;;;19.01;65.25;96033.28;5094122;28;20192;-65
2021/07/06 03:22:02;;;;;;;7.70;2.60;;;;;;;19.00;65.33;96034.34;5094526;28;20186;-67
2021/07/06 03:24:28;;;;;;;2.60;2.40;;;;;;;19.01;65.18;96035.16;5094242;28;20498;-66
2021/07/06 03:26:53;;;;;;;3.00;1.97;;;;;;;19.01;65.16;96030.63;5092836;28;20265;-66
2021/07/06 03:29:19;;;;;;;2.77;2.57;;;;;;;19.02;65.08;96026.16;5093708;28;20192;-67
2021/07/06 03:31:44;;;;;;;2.57;2.37;;;;;;;19.01;65.18;96024.53;5092517;28;20225;-67
2021/07/06 03:34:10;;;;;;;4.40;2.30;;;;;;;19.04;64.94;96013.44;5093268;28;20189;-66
2021/07/06 03:36:35;;;;;;;3.13;2.30;;;;;;;19.06;65.17;96006.03;5093721;28;20173;-66
2021/07/06 03:39:01;;;;;;;2.20;2.00;;;;;;;19.08;64.98;95998.66;5093309;28;20272;-66
2021/07/06 03:41:26;;;;;;;1.90;1.80;;;;;;;19.13;64.90;95995.28;5077641;28;20187;-66
2021/07/06 03:43:52;;;;;;;2.30;2.10;;;;;;;19.18;64.71;95998.84;5087866;28;20196;-66
2021/07/06 03:46:17;;;;;;;3.30;2.10;;;;;;;19.20;64.57;95993.31;5092337;28;20206;-66
2021/07/06 03:48:43;;;;;;;5.40;2.30;;;;;;;19.17;64.71;95997.22;5096243;28;20280;-67
2021/07/06 03:51:08;;;;;;;2.30;2.10;;;;;;;19.23;64.49;95986.72;5093307;28;20277;-67
2021/07/06 03:53:34;;;;;;;1.80;1.70;;;;;;;19.31;64.38;95976.53;5096085;28;20343;-67
2021/07/06 03:56:00;;;;;;;2.90;1.70;;;;;;;19.38;64.10;95975.56;5096078;28;20178;-67
2021/07/06 03:58:25;;;;;;;2.37;2.17;;;;;;;19.42;63.64;95976.69;5084679;28;20201;-66
2021/07/06 04:00:51;;;;;;;3.40;2.00;;;;;;;19.43;63.81;95984.41;5092380;28;20190;-66
2021/07/06 04:03:16;;;;;;;2.33;2.13;;;;;;;19.44;63.86;95979.94;5092014;28;20193;-67
2021/07/06 04:05:42;;;;;;;2.57;2.10;;;;;;;19.51;63.55;95979.78;5091857;28;20292;-66
2021/07/06 04:08:07;;;;;;;3.90;1.90;;;;;;;19.60;63.28;95984.44;5092496;28;20760;-65
2021/07/06 04:10:33;;;;;;;4.60;2.10;;;;;;;19.61;63.31;95985.25;5091459;28;20272;-65
2021/07/06 04:12:59;;;;;;;2.70;1.90;;;;;;;19.68;63.25;95982.44;5092026;28;20208;-66
2021/07/06 04:15:25;;;;;;;2.17;1.97;;;;;;;19.74;63.00;95987.63;5092062;28;20177;-65
2021/07/06 04:17:50;;;;;;;2.20;2.00;;;;;;;19.78;62.71;95979.97;5093543;28;20201;-66
2021/07/06 04:20:17;;;;;;;3.17;2.17;;;;;;;19.82;62.55;95975.78;5094892;28;20964;-65
2021/07/06 04:22:44;;;;;;;6.30;2.30;;;;;;;19.89;62.42;95979.09;5093654;28;20688;-66
2021/07/06 04:25:10;;;;;;;3.80;2.43;;;;;;;19.96;62.28;95981.59;5092920;28;20560;-66
2021/07/06 04:27:36;;;;;;;1.90;1.80;;;;;;;20.02;62.19;95972.69;5092564;28;20513;-66
2021/07/06 04:30:06;;;;;;;2.20;2.00;;;;;;;20.13;61.84;95970.16;5092718;28;20432;-66
2021/07/06 04:32:32;;;;;;;4.27;2.30;;;;;;;20.08;61.81;95966.38;5092835;28;20503;-66
2021/07/06 04:34:57;;;;;;;2.30;2.10;;;;;;;20.18;61.41;95956.94;5091395;28;20442;-67
2021/07/06 04:37:23;;;;;;;2.10;1.90;;;;;;;20.28;61.00;95965.06;5092144;28;20194;-66
2021/07/06 04:39:49;;;;;;;1.93;1.83;;;;;;;20.28;60.85;95966.91;5092368;28;20201;-67
2021/07/06 04:42:16;;;;;;;2.23;2.03;;;;;;;20.37;60.75;95968.09;5080078;28;20198;-67
2021/07/06 04:44:43;;;;;;;4.33;2.27;;;;;;;20.53;60.42;95971.78;5091954;28;20200;-67
2021/07/06 04:47:08;;;;;;;3.67;1.70;;;;;;;20.65;59.83;95966.34;5090908;28;20440;-65
2021/07/06 04:49:34;;;;;;;2.57;1.83;;;;;;;20.75;59.46;95960.38;5092185;28;20435;-65
2021/07/06 04:52:00;;;;;;;2.30;1.67;;;;;;;20.89;58.57;95956.28;5090380;28;20182;-66
2021/07/06 04:54:26;;;;;;;1.80;1.67;;;;;;;21.05;58.41;95951.94;5090853;28;20699;-65
2021/07/06 04:56:52;;;;;;;1.97;1.77;;;;;;;21.18;58.05;95954.22;5091453;28;20264;-65
2021/07/06 04:59:19;;;;;;;4.50;1.83;;;;;;;21.22;58.11;95956.38;5091480;28;20206;-65
2021/07/06 05:01:44;;;;;;;3.23;1.70;;;;;;;21.21;58.08;95958.22;5091066;28;20948;-65
2021/07/06 05:04:10;;;;;;;2.33;1.97;;;;;;;21.56;57.09;95967.63;5091123;28;20424;-66
2021/07/06 05:06:36;;;;;;;4.97;1.70;;;;;;;21.75;56.60;95969.94;5091476;28;20220;-66
2021/07/06 05:09:02;;;;;;;4.60;1.30;;;;;;;21.83;56.67;95956.13;5090178;28;20263;-66
2021/07/06 05:11:27;;;;;;;3.90;1.90;;;;;;;21.79;56.71;95953.19;5086998;28;20556;-64
2021/07/06 05:13:53;;;;;;;4.13;1.70;;;;;;;21.71;56.69;95956.31;5064343;28;20307;-66
2021/07/06 05:16:18;;;;;;;2.10;1.47;;;;;;;21.68;56.90;95962.16;5090209;28;20178;-67
2021/07/06 05:18:44;;;;;;;3.63;1.57;;;;;;;21.55;57.03;95957.22;5091913;28;20213;-66
2021/07/06 05:21:09;;;;;;;1.63;1.47;;;;;;;21.56;56.80;95951.63;5089794;28;20778;-66
2021/07/06 05:23:35;;;;;;;3.13;1.73;;;;;;;21.64;56.48;95942.38;5091030;28;20185;-66
2021/07/06 05:26:01;;;;;;;8.57;1.53;;;;;;;21.65;56.19;95945.88;5090977;28;20210;-66
2021/07/06 05:28:28;;;;;;;1.80;1.50;;;;;;;21.72;55.93;95941.13;5091158;28;20205;-65
2021/07/06 05:30:54;;;;;;;14.57;1.50;;;;;;;21.86;55.83;95942.31;5091438;28;20515;-66
2021/07/06 05:33:20;;;;;;;3.33;1.83;;;;;;;22.12;54.72;95928.31;5089862;28;20564;-65
2021/07/06 05:35:46;;;;;;;1.93;1.33;;;;;;;22.20;54.59;95925.97;5091658;28;20573;-66
2021/07/06 05:38:11;;;;;;;3.67;1.73;;;;;;;22.21;54.74;95932.13;5089722;28;20664;-67
2021/07/06 05:40:40;;;;;;;4.40;1.37;;;;;;;22.45;54.08;95937.88;5087218;28;20525;-67
2021/07/06 05:43:07;;;;;;;8.97;1.80;;;;;;;22.65;54.08;95939.84;5094070;28;20276;-67
2021/07/06 05:45:36;;;;;;;5.00;1.70;;;;;;;22.85;53.36;95949.03;5091157;28;20494;-66
2021/07/06 05:48:02;;;;;;;3.17;1.40;;;;;;;22.96;53.05;95952.50;5091203;28;20444;-66
2021/07/06 05:50:28;;;;;;;2.00;1.37;;;;;;;22.87;52.89;95957.59;5085631;28;20438;-66
2021/07/06 05:52:53;;;;;;;1.87;1.50;;;;;;;23.15;52.37;95961.66;5091003;28;20930;-65
2021/07/06 05:55:19;;;;;;;3.73;1.30;;;;;;;23.42;51.30;95958.03;5090591;28;20498;-67
2021/07/06 05:57:45;;;;;;;4.10;1.30;;;;;;;23.32;51.11;95960.66;5090388;28;20621;-66
2021/07/06 06:00:13;;;;;;;2.47;1.50;;;;;;;23.70;50.24;95958.56;5091252;28;20540;-65
2021/07/06 06:02:39;;;;;;;6.07;1.27;;;;;;;24.02;50.07;95960.19;5091538;28;20185;-66
2021/07/06 06:05:06;;;;;;;1.43;1.33;;;;;;;24.10;49.57;95968.75;5091311;28;20455;-68
2021/07/06 06:07:37;;;;;;;2.47;1.37;;;;;;;24.04;49.59;95992.84;5091393;28;20470;-67
2021/07/06 06:10:03;;;;;;;1.90;1.20;;;;;;;24.20;49.70;95990.94;5094740;28;20516;-65
2021/07/06 06:12:29;;;;;;;3.63;1.47;;;;;;;24.45;48.77;95996.53;5095085;28;20423;-66
2021/07/06 06:14:54;;;;;;;2.50;1.30;;;;;;;24.65;48.36;95991.13;5094677;28;20420;-67
2021/07/06 06:17:20;;;;;;;1.40;1.23;;;;;;;24.45;48.04;95985.81;5093399;28;20220;-67
2021/07/06 06:19:46;;;;;;;2.97;1.33;;;;;;;24.89;47.57;95982.50;5090965;28;20257;-66
2021/07/06 06:22:11;;;;;;;6.70;1.33;;;;;;;25.04;47.46;95970.13;5094927;28;20190;-67
2021/07/06 06:24:37;;;;;;;1.33;1.23;;;;;;;25.05;47.38;95964.47;5094027;28;20499;-65
2021/07/06 06:27:03;;;;;;;4.37;1.17;;;;;;;25.38;47.05;95961.34;5093904;28;20182;-65
2021/07/06 06:29:29;;;;;;;5.27;1.30;;;;;;;25.50;46.69;95955.69;5094615;28;20193;-65
2021/07/06 06:31:54;;;;;;;4.97;1.03;;;;;;;25.32;46.74;95960.59;5092985;28;20309;-67
2021/07/06 06:34:20;;;;;;;1.37;1.00;;;;;;;25.56;46.39;95960.75;5093871;28;20435;-67
2021/07/06 06:36:46;;;;;;;1.40;1.30;;;;;;;25.86;45.77;95953.53;5093286;28;20269;-67
2021/07/06 06:39:11;;;;;;;2.10;1.23;;;;;;;25.93;45.52;95947.84;5094034;28;20218;-67
2021/07/06 06:41:37;;;;;;;3.00;1.30;;;;;;;25.78;46.29;95954.13;5094529;28;20192;-67
2021/07/06 06:44:02;;;;;;;2.27;1.77;;;;;;;25.90;45.36;95959.94;5092778;28;20193;-67
2021/07/06 06:46:28;;;;;;;1.93;1.50;;;;;;;26.03;45.52;95973.78;5094040;28;20209;-66
2021/07/06 06:48:54;;;;;;;2.03;1.53;;;;;;;25.87;45.79;95976.59;5092362;28;20288;-67
2021/07/06 06:51:19;;;;;;;1.40;1.30;;;;;;;26.15;44.78;95982.28;5093120;28;20558;-66
2021/07/06 06:53:45;;;;;;;2.47;1.20;;;;;;;25.87;45.18;95981.97;5093960;28;20273;-67
2021/07/06 06:56:11;;;;;;;2.30;1.50;;;;;;;25.93;45.33;95982.72;5094114;28;20177;-66
2021/07/06 06:58:37;;;;;;;1.40;1.30;;;;;;;26.39;44.73;95984.22;5093540;28;20212;-66
2021/07/06 07:01:03;;;;;;;2.07;1.60;;;;;;;26.25;44.17;95985.97;5094234;28;20439;-66
2021/07/06 07:03:29;;;;;;;1.70;1.27;;;;;;;26.56;44.11;95988.34;5093166;28;20917;-64
2021/07/06 07:05:54;;;;;;;3.10;1.50;;;;;;;26.51;44.15;95997.28;5093793;28;20229;-67
2021/07/06 07:08:21;;;;;;;3.93;1.10;;;;;;;26.88;43.61;95984.25;5094098;28;20581;-67
2021/07/06 07:10:48;;;;;;;5.93;1.50;;;;;;;27.33;42.38;95975.88;5094041;28;20244;-65
2021/07/06 07:13:14;;;;;;;3.33;1.30;;;;;;;27.58;42.22;95980.13;5093730;28;20965;-66
2021/07/06 07:15:40;;;;;;;7.23;1.30;;;;;;;27.40;42.79;95987.88;5092576;28;20428;-65
2021/07/06 07:18:05;;;;;;;1.70;1.10;;;;;;;27.49;42.83;95987.25;5091987;28;20443;-65
2021/07/06 07:20:31;;;;;;;1.30;1.20;;;;;;;27.38;42.89;95973.91;5089149;28;20264;-66
2021/07/06 07:22:57;;;;;;;4.07;1.10;;;;;;;27.20;43.20;95977.41;5093901;28;20188;-66
2021/07/06 07:25:23;;;;;;;1.43;1.20;;;;;;;27.65;42.60;95988.63;5093190;28;20210;-67
2021/07/06 07:27:49;;;;;;;2.10;1.03;;;;;;;27.68;42.60;95982.66;5093234;28;20209;-66
2021/07/06 07:30:17;;;;;;;3.60;1.30;;;;;;;27.77;41.97;95979.31;5093461;28;20792;-67
2021/07/06 07:32:42;;;;;;;1.53;1.17;;;;;;;27.81;41.99;95975.72;5092126;28;20424;-66
2021/07/06 07:35:09;;;;;;;1.13;1.00;;;;;;;27.94;42.13;95979.56;5093592;28;20435;-64
2021/07/06 07:37:34;;;;;;;2.53;1.07;;;;;;;28.21;41.70;95967.31;5093511;28;20274;-67
2021/07/06 07:40:03;;;;;;;1.70;1.30;;;;;;;28.32;42.13;95971.41;5094575;28;20506;-66
2021/07/06 07:42:30;;;;;;;2.10;1.00;;;;;;;28.04;42.10;95971.31;5095713;28;20177;-66
2021/07/06 07:44:55;;;;;;;1.23;1.13;;;;;;;28.18;41.91;95986.75;5095926;28;21030;-66
2021/07/06 07:47:21;;;;;;;2.07;1.30;;;;;;;28.09;41.49;95983.16;5094208;28;20440;-66
2021/07/06 07:49:46;;;;;;;2.53;1.40;;;;;;;28.01;41.81;95977.28;5091326;28;20235;-66
2021/07/06 07:52:12;;;;;;;5.47;1.37;;;;;;;28.44;40.66;95976.31;5100454;28;20564;-66
2021/07/06 07:54:38;;;;;;;2.70;1.20;;;;;;;28.44;41.00;95975.53;5102179;28;20174;-67
2021/07/06 07:57:07;;;;;;;1.20;1.10;;;;;;;28.41;40.66;95965.34;5091273;28;20273;-67
2021/07/06 07:59:33;;;;;;;3.97;1.20;;;;;;;28.30;41.43;95952.06;5089261;28;20186;-66
2021/07/06 08:01:59;;;;;;;5.20;1.03;;;;;;;28.46;41.55;95947.19;5094841;28;20485;-67
2021/07/06 08:04:24;;;;;;;1.30;1.20;;;;;;;28.03;41.64;95950.88;5093417;28;20424;-66
2021/07/06 08:06:50;;;;;;;1.03;0.93;;;;;;;27.94;42.29;95949.16;5092053;28;20202;-66
2021/07/06 08:09:16;;;;;;;1.40;1.30;;;;;;;27.88;42.82;95951.13;5092860;28;20201;-67
2021/07/06 08:11:41;;;;;;;1.60;1.10;;;;;;;27.96;42.46;95955.06;5093265;28;20221;-66
2021/07/06 08:14:07;;;;;;;1.00;0.90;;;;;;;28.27;42.25;95966.13;5092923;28;20181;-66
2021/07/06 08:16:33;;;;;;;3.63;1.20;;;;;;;28.61;41.96;95974.94;5091971;28;20656;-67
2021/07/06 08:18:59;;;;;;;1.20;0.90;;;;;;;28.95;41.62;95968.34;5090531;28;20235;-68
2021/07/06 08:21:25;;;;;;;1.47;1.37;;;;;;;29.21;40.75;95965.94;5092685;28;20958;-65
2021/07/06 08:23:50;;;;;;;1.70;1.40;;;;;;;29.39;39.46;95968.81;5092495;28;20186;-67
2021/07/06 08:26:19;;;;;;;1.40;1.30;;;;;;;29.57;39.56;95989.44;5091694;28;20209;-65
2021/07/06 08:28:46;;;;;;;3.57;1.33;;;;;;;29.82;38.65;95994.53;5073894;28;20201;-67
2021/07/06 08:31:12;;;;;;;3.83;1.10;;;;;;;29.71;38.22;96012.88;5090763;28;20435;-67
2021/07/06 08:33:38;;;;;;;1.30;1.20;;;;;;;29.85;38.23;96024.44;5090630;28;20428;-66
2021/07/06 08:36:04;;;;;;;2.20;1.00;;;;;;;30.28;38.15;96025.88;5090667;28;20427;-67
2021/07/06 08:38:30;;;;;;;2.30;1.20;;;;;;;30.09;37.95;96031.47;5089660;28;20201;-67
2021/07/06 08:40:55;;;;;;;1.13;0.90;;;;;;;30.55;36.55;96037.66;5092218;28;20543;-66
2021/07/06 08:43:21;;;;;;;1.10;0.90;;;;;;;30.39;37.06;96061.50;5090901;28;20432;-67
2021/07/06 08:45:47;;;;;;;4.80;1.20;;;;;;;30.43;37.57;96062.50;5091928;28;20205;-65
2021/07/06 08:48:14;;;;;;;1.57;1.37;;;;;;;30.43;36.71;96061.72;5091830;28;20451;-67
2021/07/06 08:50:40;;;;;;;2.87;1.07;;;;;;;30.53;36.58;96072.25;5089960;28;20188;-67
2021/07/06 08:53:06;;;;;;;2.40;1.07;;;;;;;29.96;38.08;96080.94;5068562;28;20916;-66
2021/07/06 08:55:31;;;;;;;4.60;1.10;;;;;;;29.10;39.90;96088.59;5092255;28;20273;-65
2021/07/06 08:57:57;;;;;;;1.80;1.20;;;;;;;29.48;39.63;96099.19;5098637;28;20255;-66
2021/07/06 09:00:23;;;;;;;1.70;1.20;;;;;;;29.11;40.44;96101.00;5091324;28;20834;-66
2021/07/06 09:02:56;;;;;;;2.90;1.40;;;;;;;28.90;40.02;96112.13;5092984;28;20185;-66
2021/07/06 09:05:22;;;;;;;5.20;1.20;;;;;;;28.54;40.53;96115.44;5093561;28;20680;-68
2021/07/06 09:07:47;;;;;;;2.20;1.33;;;;;;;28.20;41.98;96120.00;5094017;28;20451;-69
2021/07/06 09:10:14;;;;;;;1.50;1.10;;;;;;;28.47;41.32;96121.19;5092663;28;20502;-69
2021/07/06 09:12:40;;;;;;;2.27;1.50;;;;;;;28.79;41.31;96124.19;5093065;28;20231;-68
2021/07/06 09:15:23;;;;;;;2.50;1.43;;;;;;;28.64;41.98;96128.72;5092605;28;20872;-67
2021/07/06 09:18:16;;;;;;;1.87;1.30;;;;;;;28.58;41.85;96138.00;5096319;28;20922;-67
2021/07/06 09:20:44;;;;;;;4.23;1.57;;;;;;;28.64;41.94;96139.50;5087257;28;20936;-69
2021/07/06 09:23:21;;;;;;;4.33;1.50;;;;;;;28.70;41.44;96147.50;5091990;28;20917;-67
2021/07/06 09:25:47;;;;;;;2.50;2.10;;;;;;;28.20;42.97;96163.06;5092775;28;20512;-67
2021/07/06 09:28:23;;;;;;;3.83;1.80;;;;;;;28.02;43.56;96178.09;5076152;28;20496;-67
2021/07/06 09:30:49;;;;;;;2.23;1.80;;;;;;;27.41;45.84;96195.75;5077351;28;21052;-67
2021/07/06 09:33:26;;;;;;;3.13;1.93;;;;;;;24.86;53.45;96210.75;5092182;28;20423;-68
2021/07/06 09:35:51;;;;;;;3.50;1.63;;;;;;;24.34;55.77;96231.31;5093637;28;20764;-67
2021/07/06 09:38:18;;;;;;;6.37;2.33;;;;;;;24.15;56.19;96226.44;5093906;28;20454;-67
2021/07/06 09:40:43;;;;;;;9.23;1.90;;;;;;;24.14;56.19;96226.72;5092845;28;20267;-68
2021/07/06 09:43:15;;;;;;;1.90;1.70;;;;;;;23.90;56.36;96243.19;5092381;28;20507;-68
2021/07/06 09:46:03;;;;;;;1.63;1.37;;;;;;;23.52;56.95;96261.19;5095460;28;20213;-67
2021/07/06 09:48:29;;;;;;;2.30;1.40;;;;;;;23.31;57.35;96250.38;5085475;28;20454;-69
2021/07/06 09:51:12;;;;;;;2.53;1.20;;;;;;;23.46;58.98;96223.72;5088196;28;20435;-68
2021/07/06 09:53:39;;;;;;;1.57;1.47;;;;;;;23.28;59.14;96221.50;5086428;28;20502;-68
2021/07/06 09:56:11;;;;;;;1.80;1.13;;;;;;;23.33;58.04;96218.84;5091971;28;20442;-67
2021/07/06 09:58:59;;;;;;;1.23;1.13;;;;;;;23.21;56.77;96195.00;5092622;28;20436;-68
2021/07/06 10:01:26;;;;;;;2.27;0.83;;;;;;;23.67;55.10;96197.09;5092398;28;20415;-69
2021/07/06 10:03:52;;;;;;;1.23;0.90;;;;;;;23.75;54.59;96193.13;5091080;28;21070;-68
2021/07/06 10:06:21;;;;;;;5.67;2.27;;;;;;;24.06;54.12;96195.91;5090955;28;20459;-68
2021/07/06 10:08:51;;;;;;;21.00;6.93;;;;;;;24.34;53.37;96197.31;5092343;28;20942;-68
2021/07/06 10:11:18;;;;;;;9.20;3.10;;;;;;;24.23;52.57;96203.72;5089380;28;20420;-67
2021/07/06 10:13:43;;;;;;;15.97;5.53;;;;;;;24.42;52.10;96200.56;5090644;28;21057;-68
2021/07/06 10:16:09;;;;;;;5.43;2.13;;;;;;;24.93;51.13;96195.25;5090691;28;20428;-66
2021/07/06 10:18:36;;;;;;;12.40;3.70;;;;;;;24.49;51.25;96188.50;5090949;28;20236;-67
2021/07/06 10:21:04;;;;;;;5.20;1.60;;;;;;;24.63;51.06;96193.34;5089862;28;20454;-68
2021/07/06 10:23:35;;;;;;;3.47;1.30;;;;;;;24.65;50.62;96183.97;5094859;28;20760;-68
2021/07/06 10:26:03;;;;;;;15.67;5.87;;;;;;;24.21;51.29;96189.78;5091403;28;20470;-67
2021/07/06 10:28:30;;;;;;;9.57;3.30;;;;;;;24.04;51.92;96192.69;5092916;28;20530;-68
2021/07/06 10:30:55;;;;;;;7.00;2.43;;;;;;;24.36;51.35;96187.16;5089905;28;20423;-67
2021/07/06 10:33:32;;;;;;;20.17;6.10;;;;;;;24.38;51.14;96189.56;5091352;28;20428;-68
2021/07/06 10:35:59;;;;;;;3.07;1.83;;;;;;;24.13;52.14;96174.25;5092016;28;20535;-68
2021/07/06 10:38:48;;;;;;;1.10;0.93;;;;;;;24.20;52.38;96166.78;5089840;28;20527;-68
2021/07/06 10:41:21;;;;;;;1.50;0.80;;;;;;;24.41;51.51;96156.09;5090282;28;20427;-68
2021/07/06 10:43:47;;;;;;;3.63;0.90;;;;;;;24.27;51.84;96151.28;5091638;28;20791;-68
2021/07/06 10:46:21;;;;;;;0.90;0.80;;;;;;;24.14;52.38;96157.13;5093941;28;20460;-68
2021/07/06 10:48:48;;;;;;;0.80;0.50;;;;;;;23.88;53.13;96175.78;5074123;28;20197;-67
2021/07/06 10:51:36;;;;;;;2.23;1.40;;;;;;;23.83;53.83;96179.25;5092133;28;20502;-68
2021/07/06 10:54:11;;;;;;;2.13;0.90;;;;;;;23.84;53.85;96164.81;5093314;28;20419;-66
2021/07/06 10:56:45;;;;;;;4.97;0.70;;;;;;;24.63;51.81;96153.16;5098921;28;20415;-69
2021/07/06 10:59:31;;;;;;;1.63;0.60;;;;;;;24.50;52.15;96159.84;5096731;28;20443;-67
2021/07/06 11:01:58;;;;;;;2.60;0.80;;;;;;;24.56;52.20;96184.75;5098229;28;20426;-68
2021/07/06 11:04:51;;;;;;;0.90;0.70;;;;;;;24.25;52.55;96206.16;5097309;28;20416;-67
2021/07/06 11:07:37;;;;;;;1.13;0.70;;;;;;;24.81;51.23;96202.75;5096895;28;20432;-67
2021/07/06 11:10:08;;;;;;;1.13;0.93;;;;;;;24.63;51.98;96188.78;5096753;28;20837;-66
2021/07/06 11:12:49;;;;;;;1.40;0.80;;;;;;;24.79;50.95;96178.09;5097504;28;20416;-67
2021/07/06 11:15:21;;;;;;;1.00;0.80;;;;;;;24.99;50.61;96188.78;5096654;28;20419;-68
2021/07/06 11:17:58;;;;;;;0.90;0.70;;;;;;;25.47;49.50;96193.00;5097104;28;20887;-67
2021/07/06 11:20:36;;;;;;;3.80;0.90;;;;;;;25.01;50.49;96191.22;5095044;28;20447;-68
2021/07/06 11:23:03;;;;;;;1.60;0.70;;;;;;;25.33;49.70;96189.28;5097453;28;20424;-68
2021/07/06 11:25:34;;;;;;;1.63;0.97;;;;;;;25.49;49.64;96196.22;5080190;28;21132;-69
2021/07/06 11:28:06;;;;;;;4.53;1.10;;;;;;;25.91;48.94;96189.63;5098929;28;20799;-68
2021/07/06 11:30:40;;;;;;;27.80;1.20;;;;;;;26.06;48.43;96183.38;5099286;28;20416;-68
2021/07/06 11:33:21;;;;;;;5.93;0.87;;;;;;;25.70;48.80;96199.63;5099416;28;20427;-68
2021/07/06 11:35:55;;;;;;;2.00;0.80;;;;;;;25.66;48.75;96211.19;5102439;28;20497;-66